createdAt,value
2018-12-21T00:03:36.896Z,98920.52
2018-12-21T00:08:37.744Z,98905.09
2018-12-21T00:13:39.173Z,98887.27
2018-12-21T00:18:40.343Z,98885.41
2018-12-21T00:23:41.398Z,98874.74
2018-12-21T00:28:42.602Z,98878.58
2018-12-21T00:33:43.606Z,98866.44
2018-12-21T00:38:44.433Z,98859.97
2018-12-21T00:43:45.296Z,98864.05
2018-12-21T00:48:46.857Z,98865.42
2018-12-21T00:53:47.751Z,98865.42
2018-12-21T00:58:48.558Z,98858.17
2018-12-21T01:03:49.659Z,98856.91
2018-12-21T01:08:50.578Z,98860.78
2018-12-21T01:13:51.508Z,98860.63
2018-12-21T01:18:52.215Z,98860.88
2018-12-21T01:23:52.930Z,98865.73
2018-12-21T01:28:53.686Z,98870.21
2018-12-21T01:33:54.520Z,98861.02
2018-12-21T01:38:55.385Z,98862.20
2018-12-21T01:43:56.334Z,98861.88
2018-12-21T01:48:57.145Z,98858.60
2018-12-21T01:53:58.000Z,98859.94
2018-12-21T01:58:58.997Z,98852.01
2018-12-21T02:04:00.170Z,98847.80
2018-12-21T02:09:00.871Z,98831.07
2018-12-21T02:14:01.756Z,98812.35
2018-12-21T02:19:04.875Z,98821.78
2018-12-21T02:24:05.802Z,98812.02
2018-12-21T02:29:07.034Z,98792.64
2018-12-21T02:34:08.134Z,98783.27
2018-12-21T02:39:09.027Z,98782.61
2018-12-21T02:44:09.979Z,98777.97
2018-12-21T02:49:10.866Z,98762.77
2018-12-21T02:54:13.014Z,98752.11
2018-12-21T02:59:13.906Z,98751.37
2018-12-21T03:04:14.693Z,98747.66
2018-12-21T03:09:15.878Z,98740.46
2018-12-21T03:14:16.724Z,98741.31
2018-12-21T03:19:17.645Z,98729.94
2018-12-21T03:24:18.396Z,98719.14
2018-12-21T03:29:19.268Z,98704.51
2018-12-21T03:34:19.949Z,98695.75
2018-12-21T03:39:20.999Z,98681.76
2018-12-21T03:44:21.845Z,98662.23
2018-12-21T03:49:22.833Z,98647.29
2018-12-21T03:54:23.724Z,98639.02
2018-12-21T03:59:24.494Z,98640.16
2018-12-21T04:04:25.360Z,98636.03
2018-12-21T04:09:26.060Z,98631.35
2018-12-21T04:14:26.842Z,98612.86
2018-12-21T04:19:27.523Z,98609.93
2018-12-21T04:24:28.269Z,98610.26
2018-12-21T04:29:29.124Z,98603.09
2018-12-21T04:34:29.795Z,98590.43
2018-12-21T04:39:30.629Z,98575.75
2018-12-21T04:44:31.332Z,98568.71
2018-12-21T04:49:32.222Z,98562.04
2018-12-21T04:54:32.959Z,98559.92
2018-12-21T04:59:33.782Z,98531.84
2018-12-21T05:04:34.607Z,98505.36
2018-12-21T05:09:35.334Z,98489.23
2018-12-21T05:14:36.090Z,98489.87
2018-12-21T05:19:36.823Z,98487.90
2018-12-21T05:24:37.721Z,98481.05
2018-12-21T05:29:39.703Z,98487.94
2018-12-21T05:34:40.564Z,98479.30
2018-12-21T05:39:41.393Z,98453.30
2018-12-21T05:44:42.286Z,98434.16
2018-12-21T05:49:43.047Z,98423.11
2018-12-21T05:54:44.082Z,98423.13
2018-12-21T06:05:04.988Z,98376.69
2018-12-21T06:10:06.333Z,98351.05
2018-12-21T06:15:07.753Z,98341.95
2018-12-21T06:20:08.523Z,98343.23
2018-12-21T06:25:09.399Z,98333.51
2018-12-21T06:30:10.211Z,98317.28
2018-12-21T06:40:32.085Z,98287.91
2018-12-21T06:45:33.763Z,98295.22
2018-12-21T06:50:34.520Z,98278.01
2018-12-21T06:55:35.217Z,98258.37
2018-12-21T07:00:35.894Z,98260.48
2018-12-21T07:05:36.750Z,98247.16
2018-12-21T07:10:37.546Z,98242.62
2018-12-21T07:15:38.258Z,98246.50
2018-12-21T07:20:38.954Z,98229.61
2018-12-21T07:25:39.721Z,98231.22
2018-12-21T07:30:40.598Z,98204.71
2018-12-21T07:35:41.466Z,98203.73
2018-12-21T07:40:42.344Z,98191.86
2018-12-21T07:45:43.078Z,98187.93
2018-12-21T07:50:43.791Z,98152.12
2018-12-21T07:55:44.580Z,98179.95
2018-12-21T08:00:45.361Z,98164.45
2018-12-21T08:05:46.210Z,98156.03
2018-12-21T08:10:47.067Z,98156.67
2018-12-21T08:15:47.775Z,98154.55
2018-12-21T08:20:48.628Z,98154.70
2018-12-21T08:25:49.401Z,98146.56
2018-12-21T08:30:50.220Z,98119.54
2018-12-21T08:35:50.900Z,98115.78
2018-12-21T08:40:51.664Z,98120.18
2018-12-21T08:45:52.411Z,98086.67
2018-12-21T08:50:53.227Z,98063.58
2018-12-21T08:55:54.033Z,98053.37
2018-12-21T09:00:54.822Z,98040.30
2018-12-21T09:05:55.666Z,98024.08
2018-12-21T09:10:56.574Z,98005.98
2018-12-21T09:15:57.441Z,97988.55
2018-12-21T09:20:58.389Z,97981.62
2018-12-21T09:25:59.444Z,97973.28
2018-12-21T09:31:00.443Z,97944.65
2018-12-21T09:36:01.501Z,97955.61
2018-12-21T09:41:02.914Z,97953.68
2018-12-21T09:46:04.030Z,97936.53
2018-12-21T09:51:05.919Z,97930.70
2018-12-21T09:56:06.891Z,97928.67
2018-12-21T10:01:07.636Z,97907.17
2018-12-21T10:06:08.728Z,97913.00
2018-12-21T10:11:10.134Z,97872.83
2018-12-21T10:16:11.075Z,97866.46
2018-12-21T10:21:12.312Z,97844.27
2018-12-21T10:26:13.389Z,97847.56
2018-12-21T10:31:14.257Z,97841.30
2018-12-21T10:36:15.414Z,97816.87
2018-12-21T10:41:16.377Z,97801.20
2018-12-21T10:46:21.313Z,97782.83
2018-12-21T10:51:22.616Z,97802.44
2018-12-21T10:56:23.672Z,97768.24
2018-12-21T11:01:24.801Z,97789.27
2018-12-21T11:06:26.300Z,97766.70
2018-12-21T11:11:28.284Z,97764.01
2018-12-21T11:16:29.328Z,97769.65
2018-12-21T11:21:30.059Z,97766.13
2018-12-21T11:26:30.895Z,97769.95
2018-12-21T11:31:31.740Z,97769.77
2018-12-21T11:36:32.546Z,97773.80
2018-12-21T11:41:33.348Z,97785.10
2018-12-21T11:46:34.152Z,97776.56
2018-12-21T11:51:34.874Z,97791.04
2018-12-21T11:56:35.632Z,97784.69
2018-12-21T12:01:36.395Z,97788.00
2018-12-21T12:06:37.169Z,97787.10
2018-12-21T12:11:38.006Z,97770.95
2018-12-21T12:16:38.782Z,97773.07
2018-12-21T12:21:39.790Z,97790.78
2018-12-21T12:26:44.384Z,97787.97
2018-12-21T12:31:43.286Z,97797.73
2018-12-21T12:36:44.098Z,97772.80
2018-12-21T12:41:45.039Z,97817.77
2018-12-21T12:46:45.870Z,97785.08
2018-12-21T12:51:46.714Z,97805.70
2018-12-21T12:56:47.623Z,97810.13
2018-12-21T13:01:48.431Z,97811.84
2018-12-21T13:06:49.225Z,97816.67
2018-12-21T13:11:50.029Z,97793.83
2018-12-21T13:16:50.834Z,97793.22
2018-12-21T13:21:51.637Z,97802.69
2018-12-21T13:26:52.609Z,97795.74
2018-12-21T13:31:53.382Z,97804.90
2018-12-21T13:36:54.226Z,97794.73
2018-12-21T13:41:55.000Z,97763.42
2018-12-21T13:46:55.804Z,97772.30
2018-12-21T13:51:56.632Z,97772.00
2018-12-21T13:56:57.488Z,97778.53
2018-12-21T14:01:58.226Z,97737.32
2018-12-21T14:06:58.984Z,97761.19
2018-12-21T14:11:59.756Z,97751.63
2018-12-21T14:17:00.584Z,97810.25
2018-12-21T14:22:01.410Z,97798.48
2018-12-21T14:27:02.232Z,97801.18
2018-12-21T14:32:04.081Z,97836.64
2018-12-21T14:37:04.748Z,97828.13
2018-12-21T14:42:05.463Z,97821.59
2018-12-21T14:47:06.556Z,97820.59
2018-12-21T14:52:07.683Z,97845.87
2018-12-21T14:57:08.670Z,97841.06
2018-12-21T15:02:09.819Z,97866.30
2018-12-21T15:07:10.779Z,97863.05
2018-12-21T15:12:12.408Z,97860.26
2018-12-21T15:17:13.432Z,97858.23
2018-12-21T15:22:14.267Z,97875.05
2018-12-21T15:27:15.011Z,97864.33
2018-12-21T15:32:15.984Z,97878.03
2018-12-21T15:37:16.705Z,97877.38
2018-12-21T15:42:18.297Z,97896.20
2018-12-21T15:47:20.589Z,97887.33
2018-12-21T15:52:21.440Z,97890.41
2018-12-21T15:57:22.231Z,97916.96
2018-12-21T16:02:23.107Z,97926.45
2018-12-21T16:07:23.908Z,97932.61
2018-12-21T16:12:25.049Z,97929.57
2018-12-21T16:22:46.938Z,97950.16
2018-12-21T16:27:47.771Z,97951.39
2018-12-21T16:32:49.552Z,97963.10
2018-12-21T16:37:50.369Z,97958.90
2018-12-21T16:42:51.339Z,97969.84
2018-12-21T16:47:52.133Z,97961.59
2018-12-21T16:52:53.102Z,97944.38
2018-12-21T16:57:53.883Z,97945.32
2018-12-21T17:02:54.650Z,97994.22
2018-12-21T17:07:55.380Z,97958.17
2018-12-21T17:12:56.183Z,97978.70
2018-12-21T17:17:56.951Z,97978.96
2018-12-21T17:22:57.850Z,97996.66
2018-12-21T17:27:58.893Z,98028.20
2018-12-21T17:32:59.831Z,98026.00
2018-12-21T17:38:00.770Z,98025.25
2018-12-21T17:43:02.051Z,98044.63
2018-12-21T17:48:04.245Z,98050.19
2018-12-21T17:53:05.248Z,98068.75
2018-12-21T17:58:06.378Z,98055.43
2018-12-21T18:03:07.684Z,98100.41
2018-12-21T18:13:30.234Z,98097.78
2018-12-21T18:18:31.364Z,98127.94
2018-12-21T18:23:32.960Z,98126.83
2018-12-21T18:28:33.958Z,98100.72
2018-12-21T18:33:35.122Z,98136.31
2018-12-21T18:38:36.658Z,98120.67
2018-12-21T18:43:37.726Z,98148.00
2018-12-21T18:48:39.482Z,98157.47
2018-12-21T18:53:41.102Z,98154.55
2018-12-21T18:58:42.206Z,98171.58
2018-12-21T19:21:33.453Z,98168.09
2018-12-21T19:26:34.609Z,98183.62
2018-12-21T19:31:35.629Z,98188.48
2018-12-21T19:36:36.723Z,98177.89
2018-12-21T19:41:37.998Z,98187.64
2018-12-21T19:46:38.808Z,98186.83
2018-12-21T20:02:36.881Z,98215.82
2018-12-21T20:07:38.015Z,98212.53
2018-12-21T20:12:39.205Z,98208.09
2018-12-21T20:17:40.309Z,98217.23
2018-12-21T20:22:42.007Z,98223.75
2018-12-21T20:27:43.241Z,98223.78
2018-12-21T20:32:44.614Z,98219.61
2018-12-21T20:37:45.684Z,98230.11
2018-12-21T20:42:46.741Z,98236.74
2018-12-21T20:47:47.875Z,98233.20
2018-12-21T20:52:48.949Z,98255.52
2018-12-21T20:57:50.707Z,98252.51
2018-12-21T21:02:54.839Z,98246.69
2018-12-21T21:07:55.839Z,98253.98
2018-12-21T21:12:56.862Z,98264.80
2018-12-21T21:17:57.942Z,98271.73
2018-12-21T21:22:58.895Z,98257.16
2018-12-21T21:27:59.981Z,98278.31
2018-12-21T21:33:01.012Z,98282.40
2018-12-21T21:38:02.165Z,98285.67
2018-12-21T21:43:03.536Z,98286.47
2018-12-21T21:48:04.652Z,98307.03
2018-12-21T21:53:05.690Z,98302.91
2018-12-21T21:58:06.724Z,98322.33
2018-12-21T22:03:07.803Z,98314.81
2018-12-21T22:08:09.811Z,98317.83
2018-12-21T22:13:10.867Z,98321.70
2018-12-21T22:18:11.657Z,98318.76
2018-12-21T22:23:12.647Z,98318.97
2018-12-21T22:28:13.695Z,98318.22
2018-12-21T22:33:14.770Z,98308.42
2018-12-21T22:38:15.820Z,98317.09
2018-12-21T22:43:16.895Z,98297.36
2018-12-21T22:48:20.319Z,98317.86
2018-12-21T22:53:23.598Z,98333.11
2018-12-21T22:58:27.314Z,98338.84
2018-12-21T23:16:55.432Z,98345.13
2018-12-21T23:27:21.098Z,98315.92
2018-12-21T23:32:22.464Z,98316.84
2018-12-21T23:37:24.175Z,98325.67
2018-12-21T23:42:25.270Z,98326.38
2018-12-21T23:47:26.881Z,98328.47
2018-12-21T23:52:28.507Z,98334.17
2018-12-21T23:57:29.475Z,98348.16
